createdAt,value
2019-03-21T00:00:22.717Z,8.70
2019-03-21T00:02:48.850Z,8.70
2019-03-21T00:05:16.100Z,8.70
2019-03-21T00:07:42.411Z,8.70
2019-03-21T00:10:27.620Z,8.60
2019-03-21T00:12:53.721Z,8.60
2019-03-21T00:15:23.823Z,8.60
2019-03-21T00:17:52.716Z,8.50
2019-03-21T00:20:19.156Z,8.50
2019-03-21T00:22:45.287Z,8.50
2019-03-21T00:25:14.612Z,8.50
2019-03-21T00:27:40.643Z,8.50
2019-03-21T00:30:10.504Z,8.40
2019-03-21T00:32:36.613Z,8.40
2019-03-21T00:35:05.550Z,8.40
2019-03-21T00:37:31.862Z,8.40
2019-03-21T00:39:57.895Z,8.30
2019-03-21T00:42:23.930Z,8.30
2019-03-21T00:44:49.992Z,8.30
2019-03-21T00:47:16.037Z,8.30
2019-03-21T00:49:42.079Z,8.30
2019-03-21T00:52:08.117Z,8.20
2019-03-21T00:54:34.159Z,8.20
2019-03-21T00:57:00.187Z,8.30
2019-03-21T00:59:26.502Z,8.20
2019-03-21T01:01:52.716Z,8.20
2019-03-21T01:04:20.845Z,8.20
2019-03-21T01:06:46.895Z,8.20
2019-03-21T01:09:14.677Z,8.20
2019-03-21T01:11:40.725Z,8.20
2019-03-21T01:14:06.781Z,8.10
2019-03-21T01:16:32.923Z,8.10
2019-03-21T01:18:58.957Z,8.10
2019-03-21T01:21:24.995Z,8.10
2019-03-21T01:23:51.020Z,8.00
2019-03-21T01:26:17.053Z,8.00
2019-03-21T01:28:43.085Z,8.00
2019-03-21T01:31:09.116Z,8.00
2019-03-21T01:33:35.134Z,8.00
2019-03-21T01:36:02.361Z,7.90
2019-03-21T01:38:28.397Z,7.90
2019-03-21T01:41:04.221Z,7.90
2019-03-21T01:43:30.269Z,7.80
2019-03-21T01:45:56.776Z,7.80
2019-03-21T01:48:22.827Z,7.80
2019-03-21T01:50:49.128Z,7.80
2019-03-21T01:53:15.155Z,7.80
2019-03-21T01:55:41.198Z,7.80
2019-03-21T01:58:07.214Z,7.70
2019-03-21T02:00:45.416Z,7.80
2019-03-21T02:03:11.476Z,7.70
2019-03-21T02:05:37.490Z,7.70
2019-03-21T02:08:03.632Z,7.80
2019-03-21T02:10:29.657Z,7.80
2019-03-21T02:12:56.390Z,7.70
2019-03-21T02:15:22.673Z,7.70
2019-03-21T02:17:49.119Z,7.70
2019-03-21T02:20:18.050Z,7.70
2019-03-21T02:22:44.077Z,7.70
2019-03-21T02:25:24.508Z,7.70
2019-03-21T02:27:51.422Z,7.60
2019-03-21T02:30:24.031Z,7.60
2019-03-21T02:32:52.901Z,7.60
2019-03-21T02:35:18.924Z,7.60
2019-03-21T02:37:44.946Z,7.60
2019-03-21T02:40:16.959Z,7.60
2019-03-21T02:42:43.003Z,7.60
2019-03-21T02:45:11.685Z,7.50
2019-03-21T02:47:37.788Z,7.50
2019-03-21T02:50:28.300Z,7.50
2019-03-21T02:52:54.389Z,7.50
2019-03-21T02:55:21.127Z,7.50
2019-03-21T02:57:47.138Z,7.50
2019-03-21T03:00:25.926Z,7.40
2019-03-21T03:02:53.957Z,7.40
2019-03-21T03:05:22.398Z,7.40
2019-03-21T03:07:48.424Z,7.40
2019-03-21T03:10:20.934Z,7.40
2019-03-21T03:12:47.060Z,7.40
2019-03-21T03:15:22.494Z,7.30
2019-03-21T03:17:44.547Z,7.30
2019-03-21T03:20:15.556Z,7.30
2019-03-21T03:22:41.589Z,7.30
2019-03-21T03:25:11.179Z,7.30
2019-03-21T03:27:37.200Z,7.20
2019-03-21T03:30:07.046Z,7.30
2019-03-21T03:32:33.066Z,7.20
2019-03-21T03:34:59.187Z,7.20
2019-03-21T03:37:25.213Z,7.20
2019-03-21T03:39:51.261Z,7.20
2019-03-21T03:42:17.280Z,7.20
2019-03-21T03:44:43.310Z,7.10
2019-03-21T03:47:09.360Z,7.10
2019-03-21T03:49:35.370Z,7.10
2019-03-21T03:52:01.396Z,7.10
2019-03-21T03:54:27.624Z,7.00
2019-03-21T03:56:53.671Z,7.00
2019-03-21T03:59:19.824Z,7.00
2019-03-21T04:01:46.050Z,7.00
2019-03-21T04:04:12.568Z,6.90
2019-03-21T04:06:38.710Z,6.90
2019-03-21T04:09:06.449Z,6.90
2019-03-21T04:11:32.851Z,6.80
2019-03-21T04:13:58.886Z,6.80
2019-03-21T04:16:24.922Z,6.80
2019-03-21T04:18:51.066Z,6.80
2019-03-21T04:21:17.123Z,6.80
2019-03-21T04:23:43.214Z,6.80
2019-03-21T04:26:15.847Z,6.70
2019-03-21T04:28:42.177Z,6.70
2019-03-21T04:31:08.201Z,6.70
2019-03-21T04:33:34.230Z,6.80
2019-03-21T04:36:00.274Z,6.80
2019-03-21T04:38:26.336Z,6.80
2019-03-21T04:40:52.541Z,6.80
2019-03-21T04:43:18.573Z,6.70
2019-03-21T04:45:44.586Z,6.80
2019-03-21T04:48:10.627Z,6.80
2019-03-21T04:50:40.912Z,6.80
2019-03-21T04:53:06.949Z,6.80
2019-03-21T04:55:32.969Z,6.80
2019-03-21T04:57:59.014Z,6.80
2019-03-21T05:00:46.946Z,6.80
2019-03-21T05:03:22.861Z,6.80
2019-03-21T05:05:48.933Z,6.80
2019-03-21T05:08:14.979Z,6.80
2019-03-21T05:10:41.009Z,6.70
2019-03-21T05:13:07.044Z,6.70
2019-03-21T05:15:41.591Z,6.80
2019-03-21T05:18:26.371Z,6.70
2019-03-21T05:20:52.402Z,6.70
2019-03-21T05:23:18.463Z,6.70
2019-03-21T05:25:44.632Z,6.70
2019-03-21T05:28:10.790Z,6.70
2019-03-21T05:30:52.759Z,6.70
2019-03-21T05:33:18.809Z,6.60
2019-03-21T05:35:44.941Z,6.60
2019-03-21T05:38:11.381Z,6.60
2019-03-21T05:40:37.422Z,6.60
2019-03-21T05:43:11.882Z,6.60
2019-03-21T05:45:37.961Z,6.60
2019-03-21T05:48:04.033Z,6.60
2019-03-21T05:50:30.199Z,6.60
2019-03-21T05:52:56.269Z,6.60
2019-03-21T05:55:22.294Z,6.60
2019-03-21T05:57:48.335Z,6.60
2019-03-21T06:00:18.165Z,6.60
2019-03-21T06:02:44.193Z,6.60
2019-03-21T06:05:10.263Z,6.70
2019-03-21T06:07:40.081Z,6.70
2019-03-21T06:10:12.551Z,6.70
2019-03-21T06:12:42.955Z,6.70
2019-03-21T06:15:11.793Z,6.70
2019-03-21T06:17:37.838Z,6.80
2019-03-21T06:20:07.942Z,6.80
2019-03-21T06:22:43.525Z,6.90
2019-03-21T06:25:16.155Z,6.90
2019-03-21T06:27:42.442Z,6.90
2019-03-21T06:30:08.837Z,7.10
2019-03-21T06:32:34.863Z,7.20
2019-03-21T06:35:00.943Z,7.40
2019-03-21T06:37:28.691Z,7.70
2019-03-21T06:39:54.936Z,8.10
2019-03-21T06:42:20.975Z,8.50
2019-03-21T06:44:47.075Z,8.90
2019-03-21T06:47:13.266Z,9.50
2019-03-21T06:49:39.436Z,10.10
2019-03-21T06:52:05.460Z,10.60
2019-03-21T06:54:31.514Z,11.20
2019-03-21T06:56:57.542Z,11.80
2019-03-21T06:59:23.578Z,12.40
2019-03-21T07:01:49.651Z,12.90
2019-03-21T07:04:15.672Z,13.40
2019-03-21T07:06:41.721Z,13.90
2019-03-21T07:09:07.734Z,14.30
2019-03-21T07:11:33.826Z,14.60
2019-03-21T07:13:59.854Z,14.90
2019-03-21T07:16:25.882Z,15.20
2019-03-21T07:18:51.917Z,15.40
2019-03-21T07:21:17.959Z,15.50
2019-03-21T07:23:43.973Z,15.70
2019-03-21T07:26:10.008Z,15.90
2019-03-21T07:28:38.491Z,16.20
2019-03-21T07:31:03.962Z,16.40
2019-03-21T07:33:30.007Z,16.70
2019-03-21T07:35:56.045Z,17.00
2019-03-21T07:38:22.080Z,17.30
2019-03-21T07:40:48.134Z,17.60
2019-03-21T07:43:14.182Z,17.80
2019-03-21T07:45:40.578Z,18.10
2019-03-21T07:48:06.621Z,18.30
2019-03-21T07:50:32.771Z,18.60
2019-03-21T07:52:58.781Z,18.90
2019-03-21T07:55:24.913Z,19.30
2019-03-21T07:57:50.983Z,19.50
2019-03-21T08:00:18.057Z,19.80
2019-03-21T08:02:44.077Z,20.10
2019-03-21T08:05:10.405Z,20.40
2019-03-21T08:07:36.447Z,20.60
2019-03-21T08:10:05.070Z,20.90
2019-03-21T08:12:31.090Z,21.10
2019-03-21T08:14:57.134Z,21.40
2019-03-21T08:17:23.275Z,21.70
2019-03-21T08:19:49.344Z,22.10
2019-03-21T08:22:15.412Z,22.40
2019-03-21T08:24:41.498Z,22.70
2019-03-21T08:27:07.632Z,23.00
2019-03-21T08:29:33.665Z,23.30
2019-03-21T08:32:00.241Z,23.50
2019-03-21T08:34:26.311Z,23.70
2019-03-21T08:36:52.368Z,23.90
2019-03-21T08:39:18.368Z,23.90
2019-03-21T08:41:44.406Z,24.00
2019-03-21T08:44:10.424Z,24.10
2019-03-21T08:46:36.488Z,24.30
2019-03-21T08:49:02.607Z,24.30
2019-03-21T08:51:28.740Z,24.40
2019-03-21T08:53:54.770Z,24.50
2019-03-21T08:56:20.802Z,24.60
2019-03-21T08:58:46.828Z,24.60
2019-03-21T09:01:12.861Z,24.60
2019-03-21T09:03:38.914Z,24.50
2019-03-21T09:06:04.942Z,24.40
2019-03-21T09:08:30.983Z,24.30
2019-03-21T09:10:57.070Z,24.30
2019-03-21T09:13:23.095Z,24.30
2019-03-21T09:15:49.115Z,24.40
2019-03-21T09:18:15.170Z,24.50
2019-03-21T09:20:41.190Z,24.70
2019-03-21T09:23:07.259Z,24.90
2019-03-21T09:25:33.372Z,25.00
2019-03-21T09:28:02.795Z,25.20
2019-03-21T09:30:27.646Z,25.40
2019-03-21T09:32:53.678Z,25.40
2019-03-21T09:35:19.699Z,25.50
2019-03-21T09:37:45.750Z,25.50
2019-03-21T09:40:12.324Z,25.60
2019-03-21T09:42:38.402Z,25.70
2019-03-21T09:45:06.149Z,25.90
2019-03-21T09:47:32.182Z,26.10
2019-03-21T09:49:59.282Z,26.30
2019-03-21T09:52:25.603Z,26.40
2019-03-21T09:54:51.633Z,26.60
2019-03-21T09:57:17.697Z,26.80
2019-03-21T09:59:43.995Z,26.90
2019-03-21T10:02:10.026Z,26.90
2019-03-21T10:04:38.000Z,27.00
2019-03-21T10:07:04.056Z,27.10
2019-03-21T10:09:30.106Z,27.20
2019-03-21T10:11:56.128Z,27.30
2019-03-21T10:14:22.495Z,27.40
2019-03-21T10:16:48.636Z,27.40
2019-03-21T10:19:14.952Z,27.40
2019-03-21T10:21:43.464Z,27.40
2019-03-21T10:24:08.910Z,27.30
2019-03-21T10:26:34.944Z,27.30
2019-03-21T10:29:00.980Z,27.20
2019-03-21T10:31:26.998Z,27.20
2019-03-21T10:33:53.136Z,27.20
2019-03-21T10:36:19.162Z,27.40
2019-03-21T10:38:45.191Z,27.60
2019-03-21T10:41:11.249Z,27.80
2019-03-21T10:43:37.265Z,28.00
2019-03-21T10:46:03.311Z,28.20
2019-03-21T10:48:29.359Z,28.30
2019-03-21T10:50:55.481Z,28.30
2019-03-21T10:53:21.503Z,28.40
2019-03-21T10:55:47.626Z,28.40
2019-03-21T10:58:13.689Z,28.50
2019-03-21T11:00:39.736Z,28.50
2019-03-21T11:03:05.941Z,28.60
2019-03-21T11:05:31.986Z,28.60
2019-03-21T11:07:58.034Z,28.60
2019-03-21T11:10:24.159Z,28.70
2019-03-21T11:12:50.311Z,28.60
2019-03-21T11:15:16.367Z,28.60
2019-03-21T11:17:42.788Z,28.50
2019-03-21T11:20:10.862Z,28.50
2019-03-21T11:22:36.883Z,28.40
2019-03-21T11:25:06.170Z,28.30
2019-03-21T11:27:32.309Z,28.10
2019-03-21T11:29:58.337Z,28.00
2019-03-21T11:32:24.435Z,28.00
2019-03-21T11:34:50.550Z,27.90
2019-03-21T11:37:16.670Z,27.90
2019-03-21T11:39:42.723Z,27.90
2019-03-21T11:42:08.872Z,28.00
2019-03-21T11:44:34.897Z,28.00
2019-03-21T11:47:00.917Z,28.20
2019-03-21T11:49:26.930Z,28.30
2019-03-21T11:51:53.466Z,28.40
2019-03-21T11:54:19.490Z,28.30
2019-03-21T11:56:45.588Z,28.20
2019-03-21T11:59:11.592Z,28.10
2019-03-21T12:01:37.617Z,28.10
2019-03-21T12:04:03.978Z,28.00
2019-03-21T12:06:30.034Z,28.10
2019-03-21T12:08:56.076Z,28.00
2019-03-21T12:11:22.247Z,27.90
2019-03-21T12:13:48.266Z,27.60
2019-03-21T12:16:14.307Z,27.40
2019-03-21T12:18:40.349Z,27.10
2019-03-21T12:21:06.621Z,26.90
2019-03-21T12:23:32.662Z,26.70
2019-03-21T12:25:59.618Z,26.70
2019-03-21T12:28:25.713Z,26.70
2019-03-21T12:30:51.854Z,26.80
2019-03-21T12:33:17.910Z,26.90
2019-03-21T12:35:43.957Z,27.00
2019-03-21T12:38:10.246Z,27.00
2019-03-21T12:40:36.413Z,27.10
2019-03-21T12:43:03.207Z,27.20
2019-03-21T12:45:29.609Z,27.20
2019-03-21T12:47:55.778Z,27.30
2019-03-21T12:50:21.923Z,27.40
2019-03-21T12:52:48.030Z,27.50
2019-03-21T12:55:14.051Z,27.60
2019-03-21T12:57:40.188Z,27.80
2019-03-21T13:00:11.850Z,27.90
2019-03-21T13:02:37.872Z,28.00
2019-03-21T13:05:11.338Z,28.10
2019-03-21T13:07:37.386Z,28.00
2019-03-21T13:10:04.644Z,28.00
2019-03-21T13:12:30.785Z,28.00
2019-03-21T13:14:56.882Z,28.00
2019-03-21T13:17:22.959Z,28.10
2019-03-21T13:19:49.013Z,28.10
2019-03-21T13:22:17.898Z,28.10
2019-03-21T13:24:43.933Z,28.10
2019-03-21T13:27:09.987Z,28.00
2019-03-21T13:29:36.033Z,28.00
2019-03-21T13:32:02.144Z,27.90
2019-03-21T13:34:28.159Z,27.80
2019-03-21T13:36:54.208Z,27.70
2019-03-21T13:39:20.225Z,27.50
2019-03-21T13:41:46.245Z,27.40
2019-03-21T13:44:12.296Z,27.10
2019-03-21T13:46:38.651Z,26.90
2019-03-21T13:49:06.043Z,26.70
2019-03-21T13:51:32.346Z,26.60
2019-03-21T13:53:58.410Z,26.50
2019-03-21T13:56:24.437Z,26.40
2019-03-21T13:58:50.594Z,26.30
2019-03-21T14:01:16.629Z,26.30
2019-03-21T14:03:42.679Z,26.30
2019-03-21T14:06:08.707Z,26.30
2019-03-21T14:08:34.802Z,26.10
2019-03-21T14:11:00.829Z,26.10
2019-03-21T14:13:27.097Z,26.00
2019-03-21T14:15:53.642Z,26.00
2019-03-21T14:18:19.732Z,25.80
2019-03-21T14:20:45.893Z,25.70
2019-03-21T14:23:16.838Z,25.60
2019-03-21T14:25:39.847Z,25.50
2019-03-21T14:28:05.893Z,25.40
2019-03-21T14:30:32.268Z,25.30
2019-03-21T14:32:58.870Z,25.20
2019-03-21T14:35:24.913Z,25.20
2019-03-21T14:37:50.958Z,25.10
2019-03-21T14:40:17.262Z,24.90
2019-03-21T14:42:43.319Z,24.80
2019-03-21T14:45:11.927Z,24.70
2019-03-21T14:47:38.042Z,24.60
2019-03-21T14:50:06.455Z,24.60
2019-03-21T14:52:32.852Z,24.40
2019-03-21T14:54:59.061Z,24.20
2019-03-21T14:57:25.280Z,24.10
2019-03-21T14:59:51.332Z,23.90
2019-03-21T15:02:17.364Z,23.80
2019-03-21T15:04:43.426Z,23.70
2019-03-21T15:07:09.486Z,23.70
2019-03-21T15:09:35.620Z,23.70
2019-03-21T15:12:01.792Z,23.70
2019-03-21T15:14:27.973Z,23.70
2019-03-21T15:16:54.155Z,23.60
2019-03-21T15:19:20.296Z,23.60
2019-03-21T15:21:46.304Z,23.50
2019-03-21T15:24:12.624Z,23.40
2019-03-21T15:26:38.643Z,23.30
2019-03-21T15:29:04.681Z,23.20
2019-03-21T15:31:31.002Z,23.10
2019-03-21T15:33:57.030Z,23.00
2019-03-21T15:36:23.379Z,23.00
2019-03-21T15:38:49.390Z,22.90
2019-03-21T15:41:15.480Z,22.80
2019-03-21T15:43:41.490Z,22.70
2019-03-21T15:46:07.525Z,22.60
2019-03-21T15:48:33.551Z,22.50
2019-03-21T15:51:04.880Z,22.40
2019-03-21T15:53:27.548Z,22.20
2019-03-21T15:55:53.598Z,22.10
2019-03-21T15:58:19.598Z,22.00
2019-03-21T16:00:45.639Z,21.80
2019-03-21T16:03:11.787Z,21.70
2019-03-21T16:05:37.983Z,21.50
2019-03-21T16:08:04.418Z,21.50
2019-03-21T16:10:30.510Z,21.30
2019-03-21T16:12:56.520Z,21.20
2019-03-21T16:15:22.671Z,21.10
2019-03-21T16:17:48.692Z,21.00
2019-03-21T16:20:14.863Z,21.00
2019-03-21T16:22:40.872Z,20.80
2019-03-21T16:25:07.088Z,20.70
2019-03-21T16:27:33.970Z,20.60
2019-03-21T16:30:00.003Z,20.40
2019-03-21T16:32:26.064Z,20.40
2019-03-21T16:34:52.295Z,20.30
2019-03-21T16:37:18.309Z,20.20
2019-03-21T16:39:44.579Z,20.10
2019-03-21T16:42:10.598Z,20.10
2019-03-21T16:44:36.616Z,20.00
2019-03-21T16:47:02.737Z,19.90
2019-03-21T16:49:28.978Z,19.90
2019-03-21T16:51:55.026Z,19.80
2019-03-21T16:54:21.044Z,19.70
2019-03-21T16:56:47.105Z,19.60
2019-03-21T16:59:13.222Z,19.60
2019-03-21T17:01:39.325Z,19.50
2019-03-21T17:04:05.678Z,19.40
2019-03-21T17:06:31.840Z,19.30
2019-03-21T17:08:57.926Z,19.30
2019-03-21T17:11:24.039Z,19.20
2019-03-21T17:13:50.059Z,19.10
2019-03-21T17:16:16.335Z,19.00
2019-03-21T17:18:42.372Z,19.00
2019-03-21T17:21:09.661Z,18.90
2019-03-21T17:23:36.158Z,18.80
2019-03-21T17:26:02.532Z,18.70
2019-03-21T17:28:28.566Z,18.70
2019-03-21T17:30:54.643Z,18.60
2019-03-21T17:33:20.646Z,18.50
2019-03-21T17:35:46.661Z,18.40
2019-03-21T17:38:12.754Z,18.40
2019-03-21T17:40:38.854Z,18.30
2019-03-21T17:43:04.879Z,18.20
2019-03-21T17:45:30.928Z,18.20
2019-03-21T17:47:57.211Z,18.10
2019-03-21T17:50:23.518Z,18.00
2019-03-21T17:52:49.554Z,17.90
2019-03-21T17:55:15.607Z,17.90
2019-03-21T17:57:41.731Z,17.80
2019-03-21T18:00:11.355Z,17.70
2019-03-21T18:02:37.687Z,17.60
2019-03-21T18:05:06.219Z,17.50
2019-03-21T18:07:32.364Z,17.50
2019-03-21T18:09:58.368Z,17.40
2019-03-21T18:12:24.447Z,17.30
2019-03-21T18:14:50.477Z,17.20
2019-03-21T18:17:16.511Z,17.10
2019-03-21T18:19:42.744Z,17.00
2019-03-21T18:22:09.054Z,16.90
2019-03-21T18:24:35.104Z,16.90
2019-03-21T18:27:01.435Z,16.80
2019-03-21T18:29:27.536Z,16.70
2019-03-21T18:31:53.554Z,16.60
2019-03-21T18:34:19.590Z,16.60
2019-03-21T18:36:45.614Z,16.50
2019-03-21T18:39:14.209Z,16.40
2019-03-21T18:41:39.593Z,16.40
2019-03-21T18:44:05.657Z,16.30
2019-03-21T18:46:31.688Z,16.20
2019-03-21T18:48:57.759Z,16.20
2019-03-21T18:51:23.865Z,16.20
2019-03-21T18:53:50.174Z,16.00
2019-03-21T18:56:16.231Z,15.90
2019-03-21T18:58:42.380Z,15.90
2019-03-21T19:01:08.547Z,15.80
2019-03-21T19:03:34.635Z,15.80
2019-03-21T19:06:00.649Z,15.70
2019-03-21T19:08:26.680Z,15.60
2019-03-21T19:10:52.703Z,15.60
2019-03-21T19:13:18.740Z,15.50
2019-03-21T19:15:44.805Z,15.50
2019-03-21T19:18:10.936Z,15.40
2019-03-21T19:20:36.950Z,15.30
2019-03-21T19:23:03.435Z,15.30
2019-03-21T19:25:29.450Z,15.20
2019-03-21T19:27:55.507Z,15.10
2019-03-21T19:30:21.551Z,15.10
2019-03-21T19:32:47.917Z,15.10
2019-03-21T19:35:14.166Z,15.00
2019-03-21T19:37:40.185Z,15.00
2019-03-21T19:40:08.606Z,14.90
2019-03-21T19:42:35.032Z,14.90
2019-03-21T19:45:01.061Z,14.80
2019-03-21T19:47:30.293Z,14.80
2019-03-21T19:49:55.406Z,14.70
2019-03-21T19:52:21.745Z,14.70
2019-03-21T19:54:47.774Z,14.60
2019-03-21T19:57:14.287Z,14.60
2019-03-21T19:59:40.799Z,14.50
2019-03-21T20:02:07.039Z,14.50
2019-03-21T20:04:33.063Z,14.50
2019-03-21T20:06:59.329Z,14.40
2019-03-21T20:09:25.360Z,14.30
2019-03-21T20:11:51.501Z,14.30
2019-03-21T20:14:17.523Z,14.20
2019-03-21T20:16:43.556Z,14.20
2019-03-21T20:19:09.631Z,14.20
2019-03-21T20:21:47.123Z,14.10
2019-03-21T20:24:03.718Z,14.10
2019-03-21T20:26:29.983Z,14.00
2019-03-21T20:28:56.006Z,14.00
2019-03-21T20:31:22.077Z,13.90
2019-03-21T20:33:48.168Z,13.90
2019-03-21T20:36:14.197Z,13.80
2019-03-21T20:38:40.214Z,13.80
2019-03-21T20:41:06.276Z,13.70
2019-03-21T20:43:32.352Z,13.60
2019-03-21T20:45:58.494Z,13.60
2019-03-21T20:48:27.348Z,13.60
2019-03-21T20:50:53.418Z,13.50
2019-03-21T20:53:19.841Z,13.50
2019-03-21T20:55:53.556Z,13.40
2019-03-21T20:58:14.152Z,13.40
2019-03-21T21:00:40.193Z,13.30
2019-03-21T21:03:06.339Z,13.20
2019-03-21T21:05:32.380Z,13.20
2019-03-21T21:07:58.447Z,13.20
2019-03-21T21:10:24.549Z,13.10
2019-03-21T21:12:50.580Z,13.10
2019-03-21T21:15:17.205Z,13.10
2019-03-21T21:17:43.406Z,13.00
2019-03-21T21:20:11.994Z,13.00
2019-03-21T21:22:38.386Z,13.00
2019-03-21T21:25:06.313Z,12.90
2019-03-21T21:27:32.330Z,12.90
2019-03-21T21:29:58.349Z,12.80
2019-03-21T21:32:24.374Z,12.80
2019-03-21T21:34:50.398Z,12.80
2019-03-21T21:37:16.495Z,12.70
2019-03-21T21:39:42.672Z,12.70
2019-03-21T21:42:08.685Z,12.60
2019-03-21T21:44:34.734Z,12.60
2019-03-21T21:47:00.765Z,12.50
2019-03-21T21:49:26.791Z,12.40
2019-03-21T21:51:52.817Z,12.40
2019-03-21T21:54:18.833Z,12.40
2019-03-21T21:56:44.889Z,12.40
2019-03-21T21:59:10.918Z,12.30
2019-03-21T22:01:37.434Z,12.30
2019-03-21T22:04:04.843Z,12.20
2019-03-21T22:06:31.311Z,12.20
2019-03-21T22:08:57.413Z,12.00
2019-03-21T22:11:23.462Z,12.10
2019-03-21T22:13:49.581Z,12.10
2019-03-21T22:16:15.897Z,12.00
2019-03-21T22:18:41.974Z,12.00
2019-03-21T22:21:07.997Z,12.10
2019-03-21T22:23:34.311Z,12.00
2019-03-21T22:26:00.325Z,11.90
2019-03-21T22:28:26.366Z,11.90
2019-03-21T22:30:52.418Z,11.90
2019-03-21T22:33:18.450Z,11.80
2019-03-21T22:35:44.467Z,11.80
2019-03-21T22:38:10.518Z,11.70
2019-03-21T22:40:36.558Z,11.70
2019-03-21T22:43:02.613Z,11.70
2019-03-21T22:45:28.675Z,11.60
2019-03-21T22:47:54.779Z,11.60
2019-03-21T22:50:21.135Z,11.50
2019-03-21T22:52:47.181Z,11.50
2019-03-21T22:55:13.914Z,11.40
2019-03-21T22:57:40.246Z,11.40
2019-03-21T23:00:17.711Z,11.30
2019-03-21T23:02:43.859Z,11.30
2019-03-21T23:05:10.281Z,11.20
2019-03-21T23:07:36.325Z,11.20
2019-03-21T23:10:04.868Z,11.10
2019-03-21T23:12:30.901Z,11.10
2019-03-21T23:14:57.237Z,11.10
2019-03-21T23:17:23.250Z,11.00
2019-03-21T23:19:49.292Z,11.00
2019-03-21T23:22:15.622Z,10.90
2019-03-21T23:24:41.949Z,10.90
2019-03-21T23:27:07.968Z,10.90
2019-03-21T23:29:33.995Z,10.80
2019-03-21T23:32:00.014Z,10.80
2019-03-21T23:34:26.043Z,10.80
2019-03-21T23:36:52.073Z,10.80
2019-03-21T23:39:18.110Z,10.70
2019-03-21T23:41:44.238Z,10.70
2019-03-21T23:44:10.291Z,10.60
2019-03-21T23:46:36.319Z,10.60
2019-03-21T23:49:02.485Z,10.60
2019-03-21T23:51:28.513Z,10.60
2019-03-21T23:53:54.550Z,10.60
2019-03-21T23:56:20.572Z,10.50
2019-03-21T23:58:46.590Z,10.50
